sensor_id;sensor_type;location;lat;lon;timestamp;pressure;altitude;pressure_sealevel;temperature;humidity
59729;BME280;45588;51.598;5.618;2022-09-06T00:00:37;101448.72;;;17.68;100.00
59729;BME280;45588;51.598;5.618;2022-09-06T00:03:03;101439.94;;;17.60;100.00
59729;BME280;45588;51.598;5.618;2022-09-06T00:05:30;101434.66;;;17.63;100.00
59729;BME280;45588;51.598;5.618;2022-09-06T00:07:59;101425.88;;;17.61;100.00
59729;BME280;45588;51.598;5.618;2022-09-06T00:10:26;101421.47;;;17.57;100.00
59729;BME280;45588;51.598;5.618;2022-09-06T00:12:52;101435.53;;;17.64;100.00
59729;BME280;45588;51.598;5.618;2022-09-06T00:15:17;101449.59;;;17.66;100.00
59729;BME280;45588;51.598;5.618;2022-09-06T00:17:43;101453.13;;;17.68;100.00
59729;BME280;45588;51.598;5.618;2022-09-06T00:20:11;101464.56;;;17.71;100.00
59729;BME280;45588;51.598;5.618;2022-09-06T00:22:37;101473.34;;;17.75;100.00
59729;BME280;45588;51.598;5.618;2022-09-06T00:25:04;101483.88;;;17.78;100.00
59729;BME280;45588;51.598;5.618;2022-09-06T00:27:30;101504.13;;;17.79;100.00
59729;BME280;45588;51.598;5.618;2022-09-06T00:29:56;101535.78;;;17.82;100.00
59729;BME280;45588;51.598;5.618;2022-09-06T00:32:21;101588.50;;;17.90;100.00
59729;BME280;45588;51.598;5.618;2022-09-06T00:34:46;101595.50;;;17.86;100.00
59729;BME280;45588;51.598;5.618;2022-09-06T00:37:12;101584.09;;;17.87;100.00
59729;BME280;45588;51.598;5.618;2022-09-06T00:39:37;101605.19;;;17.84;100.00
59729;BME280;45588;51.598;5.618;2022-09-06T00:42:07;101607.78;;;17.81;100.00
59729;BME280;45588;51.598;5.618;2022-09-06T00:44:33;101580.53;;;17.81;100.00
59729;BME280;45588;51.598;5.618;2022-09-06T00:46:58;101569.94;;;17.70;100.00
59729;BME280;45588;51.598;5.618;2022-09-06T00:49:28;101584.88;;;17.76;100.00
59729;BME280;45588;51.598;5.618;2022-09-06T00:51:59;101574.31;;;17.71;100.00
59729;BME280;45588;51.598;5.618;2022-09-06T00:54:26;101575.22;;;17.76;100.00
59729;BME280;45588;51.598;5.618;2022-09-06T00:56:53;101587.44;;;17.66;100.00
59729;BME280;45588;51.598;5.618;2022-09-06T00:59:19;101586.53;;;17.61;100.00
59729;BME280;45588;51.598;5.618;2022-09-06T01:01:44;101581.25;;;17.55;100.00
59729;BME280;45588;51.598;5.618;2022-09-06T01:04:10;101581.28;;;17.57;100.00
59729;BME280;45588;51.598;5.618;2022-09-06T01:06:56;101576.84;;;17.56;100.00
59729;BME280;45588;51.598;5.618;2022-09-06T01:10:22;101565.41;;;17.47;100.00
59729;BME280;45588;51.598;5.618;2022-09-06T01:15:07;101556.56;;;17.38;100.00
59729;BME280;45588;51.598;5.618;2022-09-06T01:20:26;101550.44;;;17.40;100.00
59729;BME280;45588;51.598;5.618;2022-09-06T01:28:34;101523.06;;;17.12;100.00
59729;BME280;45588;51.598;5.618;2022-09-06T01:36:19;101508.13;;;17.13;100.00
59729;BME280;45588;51.598;5.618;2022-09-06T01:38:46;101494.97;;;17.13;100.00
59729;BME280;45588;51.598;5.618;2022-09-06T01:41:11;101488.78;;;17.01;100.00
59729;BME280;45588;51.598;5.618;2022-09-06T01:43:38;101460.59;;;16.88;100.00
59729;BME280;45588;51.598;5.618;2022-09-06T01:46:34;101463.22;;;16.86;100.00
59729;BME280;45588;51.598;5.618;2022-09-06T01:49:17;101449.16;;;16.83;100.00
59729;BME280;45588;51.598;5.618;2022-09-06T01:52:12;101436.91;;;16.85;100.00
59729;BME280;45588;51.598;5.618;2022-09-06T01:55:10;101412.38;;;16.86;100.00
59729;BME280;45588;51.598;5.618;2022-09-06T02:00:38;101400.97;;;16.90;100.00
59729;BME280;45588;51.598;5.618;2022-09-06T02:06:08;101354.53;;;16.97;100.00
59729;BME280;45588;51.598;5.618;2022-09-06T02:08:46;101359.81;;;17.03;100.00
59729;BME280;45588;51.598;5.618;2022-09-06T02:11:14;101342.31;;;17.03;100.00
59729;BME280;45588;51.598;5.618;2022-09-06T02:13:48;101334.41;;;17.05;100.00
59729;BME280;45588;51.598;5.618;2022-09-06T02:16:19;101327.38;;;17.05;100.00
59729;BME280;45588;51.598;5.618;2022-09-06T02:19:05;101325.63;;;17.04;100.00
59729;BME280;45588;51.598;5.618;2022-09-06T02:21:35;101327.38;;;17.02;100.00
59729;BME280;45588;51.598;5.618;2022-09-06T02:24:05;101321.25;;;17.03;100.00
59729;BME280;45588;51.598;5.618;2022-09-06T02:26:35;101316.81;;;17.01;100.00
59729;BME280;45588;51.598;5.618;2022-09-06T02:29:02;101308.94;;;17.01;100.00
59729;BME280;45588;51.598;5.618;2022-09-06T02:31:30;101305.44;;;17.02;100.00
59729;BME280;45588;51.598;5.618;2022-09-06T02:33:58;101312.47;;;17.01;100.00
59729;BME280;45588;51.598;5.618;2022-09-06T02:36:23;101325.63;;;17.04;100.00
59729;BME280;45588;51.598;5.618;2022-09-06T02:38:49;101337.91;;;17.04;100.00
59729;BME280;45588;51.598;5.618;2022-09-06T02:41:18;101357.22;;;17.07;100.00
59729;BME280;45588;51.598;5.618;2022-09-06T02:43:47;101371.28;;;17.11;100.00
59729;BME280;45588;51.598;5.618;2022-09-06T02:46:12;101371.28;;;17.11;100.00
59729;BME280;45588;51.598;5.618;2022-09-06T02:48:37;101371.28;;;17.11;100.00
59729;BME280;45588;51.598;5.618;2022-09-06T02:51:07;101385.28;;;17.10;100.00
59729;BME280;45588;51.598;5.618;2022-09-06T02:53:33;101380.03;;;17.13;100.00
59729;BME280;45588;51.598;5.618;2022-09-06T02:55:58;101376.50;;;17.08;100.00
59729;BME280;45588;51.598;5.618;2022-09-06T02:58:24;101374.75;;;17.05;100.00
59729;BME280;45588;51.598;5.618;2022-09-06T03:00:51;101368.59;;;17.02;100.00
59729;BME280;45588;51.598;5.618;2022-09-06T03:03:17;101370.31;;;16.98;100.00
59729;BME280;45588;51.598;5.618;2022-09-06T03:05:46;101369.44;;;16.95;100.00
59729;BME280;45588;51.598;5.618;2022-09-06T03:08:12;101359.78;;;16.92;100.00
59729;BME280;45588;51.598;5.618;2022-09-06T03:10:37;101374.66;;;16.87;100.00
59729;BME280;45588;51.598;5.618;2022-09-06T03:13:02;101379.03;;;16.85;100.00
59729;BME280;45588;51.598;5.618;2022-09-06T03:15:28;101373.75;;;16.82;100.00
59729;BME280;45588;51.598;5.618;2022-09-06T03:17:56;101370.22;;;16.80;100.00
59729;BME280;45588;51.598;5.618;2022-09-06T03:20:22;101366.69;;;16.76;100.00
59729;BME280;45588;51.598;5.618;2022-09-06T03:22:47;101375.50;;;16.78;100.00
59729;BME280;45588;51.598;5.618;2022-09-06T03:25:13;101367.53;;;16.75;100.00
59729;BME280;45588;51.598;5.618;2022-09-06T03:27:38;101365.75;;;16.70;100.00
59729;BME280;45588;51.598;5.618;2022-09-06T03:30:04;101374.53;;;16.69;100.00
59729;BME280;45588;51.598;5.618;2022-09-06T03:32:30;101368.38;;;16.70;100.00
59729;BME280;45588;51.598;5.618;2022-09-06T03:34:55;101367.50;;;16.69;100.00
59729;BME280;45588;51.598;5.618;2022-09-06T03:37:20;101363.06;;;16.60;100.00
59729;BME280;45588;51.598;5.618;2022-09-06T03:39:46;101356.88;;;16.52;100.00
59729;BME280;45588;51.598;5.618;2022-09-06T03:42:11;101350.69;;;16.44;100.00
59729;BME280;45588;51.598;5.618;2022-09-06T03:44:36;101350.66;;;16.42;100.00
59729;BME280;45588;51.598;5.618;2022-09-06T03:47:02;101351.47;;;16.35;100.00
59729;BME280;45588;51.598;5.618;2022-09-06T03:49:28;101359.38;;;16.34;100.00
59729;BME280;45588;51.598;5.618;2022-09-06T03:51:53;101362.84;;;16.30;100.00
59729;BME280;45588;51.598;5.618;2022-09-06T03:54:18;101366.34;;;16.29;100.00
59729;BME280;45588;51.598;5.618;2022-09-06T03:56:43;101367.19;;;16.25;100.00
59729;BME280;45588;51.598;5.618;2022-09-06T03:59:09;101357.47;;;16.17;100.00
59729;BME280;45588;51.598;5.618;2022-09-06T04:01:34;101368.91;;;16.21;100.00
59729;BME280;45588;51.598;5.618;2022-09-06T04:03:59;101370.63;;;16.16;100.00
59729;BME280;45588;51.598;5.618;2022-09-06T04:06:26;101381.97;;;16.15;100.00
59729;BME280;45588;51.598;5.618;2022-09-06T04:08:51;101378.47;;;16.14;100.00
59729;BME280;45588;51.598;5.618;2022-09-06T04:11:16;101381.09;;;16.11;100.00
59729;BME280;45588;51.598;5.618;2022-09-06T04:13:42;101380.19;;;16.09;100.00
59729;BME280;45588;51.598;5.618;2022-09-06T04:16:07;101377.53;;;16.03;100.00
59729;BME280;45588;51.598;5.618;2022-09-06T04:18:32;101370.47;;;15.99;100.00
59729;BME280;45588;51.598;5.618;2022-09-06T04:20:58;101373.94;;;15.96;100.00
59729;BME280;45588;51.598;5.618;2022-09-06T04:23:24;101372.06;;;15.80;100.00
59729;BME280;45588;51.598;5.618;2022-09-06T04:25:54;101374.59;;;15.74;100.00
59729;BME280;45588;51.598;5.618;2022-09-06T04:28:20;101376.25;;;15.66;100.00
59729;BME280;45588;51.598;5.618;2022-09-06T04:30:56;101375.31;;;15.61;100.00
59729;BME280;45588;51.598;5.618;2022-09-06T04:33:23;101385.78;;;15.57;100.00
59729;BME280;45588;51.598;5.618;2022-09-06T04:35:56;101392.75;;;15.55;100.00
59729;BME280;45588;51.598;5.618;2022-09-06T04:38:26;101398.03;;;15.58;100.00
59729;BME280;45588;51.598;5.618;2022-09-06T04:40:53;101389.25;;;15.55;100.00
59729;BME280;45588;51.598;5.618;2022-09-06T04:43:20;101394.53;;;15.59;100.00
59729;BME280;45588;51.598;5.618;2022-09-06T04:45:45;101399.75;;;15.56;100.00
59729;BME280;45588;51.598;5.618;2022-09-06T04:48:10;101394.50;;;15.55;100.00
59729;BME280;45588;51.598;5.618;2022-09-06T04:50:36;101394.50;;;15.55;100.00
59729;BME280;45588;51.598;5.618;2022-09-06T04:53:02;101396.19;;;15.51;100.00
59729;BME280;45588;51.598;5.618;2022-09-06T04:55:27;101397.00;;;15.43;100.00
59729;BME280;45588;51.598;5.618;2022-09-06T04:57:59;101389.13;;;15.44;100.00
59729;BME280;45588;51.598;5.618;2022-09-06T05:00:25;101391.75;;;15.43;100.00
59729;BME280;45588;51.598;5.618;2022-09-06T05:02:51;101389.06;;;15.38;100.00
59729;BME280;45588;51.598;5.618;2022-09-06T05:05:16;101398.69;;;15.38;100.00
59729;BME280;45588;51.598;5.618;2022-09-06T05:07:41;101403.03;;;15.39;100.00
59729;BME280;45588;51.598;5.618;2022-09-06T05:10:07;101409.13;;;15.34;100.00
59729;BME280;45588;51.598;5.618;2022-09-06T05:12:32;101412.53;;;15.29;100.00
59729;BME280;45588;51.598;5.618;2022-09-06T05:14:57;101413.50;;;15.32;100.00
59729;BME280;45588;51.598;5.618;2022-09-06T05:17:23;101414.22;;;15.24;100.00
59729;BME280;45588;51.598;5.618;2022-09-06T05:19:48;101417.56;;;15.10;100.00
59729;BME280;45588;51.598;5.618;2022-09-06T05:22:13;101412.19;;;15.01;100.00
59729;BME280;45588;51.598;5.618;2022-09-06T05:24:39;101416.66;;;15.08;100.00
59729;BME280;45588;51.598;5.618;2022-09-06T05:27:04;101407.78;;;14.99;100.00
59729;BME280;45588;51.598;5.618;2022-09-06T05:29:31;101405.94;;;14.93;100.00
59729;BME280;45588;51.598;5.618;2022-09-06T05:31:57;101406.06;;;15.01;100.00
59729;BME280;45588;51.598;5.618;2022-09-06T05:34:22;101411.47;;;15.13;100.00
59729;BME280;45588;51.598;5.618;2022-09-06T05:36:47;101417.66;;;15.18;100.00
59729;BME280;45588;51.598;5.618;2022-09-06T05:39:13;101417.75;;;15.26;100.00
59729;BME280;45588;51.598;5.618;2022-09-06T05:41:38;101412.56;;;15.30;100.00
59729;BME280;45588;51.598;5.618;2022-09-06T05:44:03;101413.50;;;15.37;100.00
59729;BME280;45588;51.598;5.618;2022-09-06T05:46:29;101418.06;;;15.52;100.00
59729;BME280;45588;51.598;5.618;2022-09-06T05:48:56;101421.69;;;15.62;100.00
59729;BME280;45588;51.598;5.618;2022-09-06T05:51:24;101417.50;;;15.74;100.00
59729;BME280;45588;51.598;5.618;2022-09-06T05:53:49;101412.38;;;15.85;100.00
59729;BME280;45588;51.598;5.618;2022-09-06T05:56:15;101417.72;;;15.96;100.00
59729;BME280;45588;51.598;5.618;2022-09-06T05:58:41;101411.75;;;16.11;100.00
59729;BME280;45588;51.598;5.618;2022-09-06T06:01:20;101414.50;;;16.26;100.00
59729;BME280;45588;51.598;5.618;2022-09-06T06:03:53;101412.78;;;16.33;100.00
59729;BME280;45588;51.598;5.618;2022-09-06T06:06:20;101412.09;;;16.51;100.00
59729;BME280;45588;51.598;5.618;2022-09-06T06:08:46;101419.19;;;16.62;100.00
59729;BME280;45588;51.598;5.618;2022-09-06T06:11:11;101422.75;;;16.71;100.00
59729;BME280;45588;51.598;5.618;2022-09-06T06:13:37;101416.75;;;16.90;100.00
59729;BME280;45588;51.598;5.618;2022-09-06T06:16:08;101410.66;;;16.97;100.00
59729;BME280;45588;51.598;5.618;2022-09-06T06:18:34;101409.81;;;17.01;100.00
59729;BME280;45588;51.598;5.618;2022-09-06T06:21:16;101414.22;;;17.04;100.00
59729;BME280;45588;51.598;5.618;2022-09-06T06:23:43;101416.06;;;17.19;100.00
59729;BME280;45588;51.598;5.618;2022-09-06T06:26:10;101412.53;;;17.18;100.00
59729;BME280;45588;51.598;5.618;2022-09-06T06:28:36;101417.00;;;17.35;100.00
59729;BME280;45588;51.598;5.618;2022-09-06T06:31:03;101417.06;;;17.56;100.00
59729;BME280;45588;51.598;5.618;2022-09-06T06:33:29;101419.75;;;17.73;100.00
59729;BME280;45588;51.598;5.618;2022-09-06T06:36:17;101426.84;;;17.83;100.00
59729;BME280;45588;51.598;5.618;2022-09-06T06:38:45;101411.97;;;18.02;100.00
59729;BME280;45588;51.598;5.618;2022-09-06T06:41:12;101415.50;;;18.12;100.00
59729;BME280;45588;51.598;5.618;2022-09-06T06:43:38;101406.72;;;18.28;100.00
59729;BME280;45588;51.598;5.618;2022-09-06T06:46:08;101408.47;;;18.37;100.00
59729;BME280;45588;51.598;5.618;2022-09-06T06:48:35;101407.59;;;18.50;100.00
59729;BME280;45588;51.598;5.618;2022-09-06T06:51:01;101405.81;;;18.58;100.00
59729;BME280;45588;51.598;5.618;2022-09-06T06:53:26;101404.91;;;18.64;100.00
59729;BME280;45588;51.598;5.618;2022-09-06T06:55:52;101404.06;;;18.79;100.00
59729;BME280;45588;51.598;5.618;2022-09-06T06:58:18;101409.31;;;18.90;100.00
59729;BME280;45588;51.598;5.618;2022-09-06T07:00:44;101411.06;;;18.98;100.00
59729;BME280;45588;51.598;5.618;2022-09-06T07:03:10;101409.28;;;19.13;100.00
59729;BME280;45588;51.598;5.618;2022-09-06T07:05:36;101400.44;;;19.18;100.00
59729;BME280;45588;51.598;5.618;2022-09-06T07:08:02;101395.09;;;19.28;100.00
59729;BME280;45588;51.598;5.618;2022-09-06T07:10:27;101410.03;;;19.39;100.00
59729;BME280;45588;51.598;5.618;2022-09-06T07:12:53;101410.88;;;19.49;100.00
59729;BME280;45588;51.598;5.618;2022-09-06T07:15:18;101404.66;;;19.58;100.00
59729;BME280;45588;51.598;5.618;2022-09-06T07:17:44;101400.25;;;19.58;100.00
59729;BME280;45588;51.598;5.618;2022-09-06T07:20:10;101398.44;;;19.73;100.00
59729;BME280;45588;51.598;5.618;2022-09-06T07:22:36;101395.75;;;19.82;100.00
59729;BME280;45588;51.598;5.618;2022-09-06T07:25:03;101398.31;;;19.94;100.00
59729;BME280;45588;51.598;5.618;2022-09-06T07:27:28;101391.19;;;20.04;100.00
59729;BME280;45588;51.598;5.618;2022-09-06T07:29:54;101392.91;;;20.11;100.00
59729;BME280;45588;51.598;5.618;2022-09-06T07:32:19;101402.56;;;20.17;100.00
59729;BME280;45588;51.598;5.618;2022-09-06T07:34:44;101400.72;;;20.26;100.00
59729;BME280;45588;51.598;5.618;2022-09-06T07:37:09;101390.97;;;20.30;100.00
59729;BME280;45588;51.598;5.618;2022-09-06T07:39:35;101399.75;;;20.37;100.00
59729;BME280;45588;51.598;5.618;2022-09-06T07:42:01;101395.19;;;20.54;100.00
59729;BME280;45588;51.598;5.618;2022-09-06T07:44:27;101390.72;;;20.64;100.00
59729;BME280;45588;51.598;5.618;2022-09-06T07:46:53;101390.56;;;20.79;100.00
59729;BME280;45588;51.598;5.618;2022-09-06T07:49:19;101401.97;;;20.84;100.00
59729;BME280;45588;51.598;5.618;2022-09-06T07:51:44;101393.06;;;20.91;100.00
59729;BME280;45588;51.598;5.618;2022-09-06T07:54:10;101395.44;;;21.17;100.00
59729;BME280;45588;51.598;5.618;2022-09-06T07:56:35;101397.22;;;21.15;100.00
59729;BME280;45588;51.598;5.618;2022-09-06T07:59:00;101393.66;;;21.18;100.00
59729;BME280;45588;51.598;5.618;2022-09-06T08:01:32;101396.16;;;21.29;100.00
59729;BME280;45588;51.598;5.618;2022-09-06T08:04:06;101389.88;;;21.36;100.00
59729;BME280;45588;51.598;5.618;2022-09-06T08:06:34;101387.13;;;21.48;100.00
59729;BME280;45588;51.598;5.618;2022-09-06T08:09:01;101378.13;;;21.57;100.00
59729;BME280;45588;51.598;5.618;2022-09-06T08:11:29;101384.94;;;21.76;100.00
59729;BME280;45588;51.598;5.618;2022-09-06T08:13:55;101377.59;;;21.94;100.00
59729;BME280;45588;51.598;5.618;2022-09-06T08:16:22;101375.72;;;22.02;100.00
59729;BME280;45588;51.598;5.618;2022-09-06T08:18:50;101373.84;;;22.09;100.00
59729;BME280;45588;51.598;5.618;2022-09-06T08:21:15;101368.41;;;22.18;100.00
59729;BME280;45588;51.598;5.618;2022-09-06T08:23:46;101363.84;;;22.28;100.00
59729;BME280;45588;51.598;5.618;2022-09-06T08:26:12;101364.72;;;22.27;100.00
59729;BME280;45588;51.598;5.618;2022-09-06T08:28:38;101371.34;;;22.54;100.00
59729;BME280;45588;51.598;5.618;2022-09-06T08:31:11;101378.88;;;22.77;99.00
59729;BME280;45588;51.598;5.618;2022-09-06T08:33:37;101362.63;;;22.94;95.55
59729;BME280;45588;51.598;5.618;2022-09-06T08:36:04;101371.25;;;23.05;96.61
59729;BME280;45588;51.598;5.618;2022-09-06T08:38:29;101366.22;;;23.35;96.62
59729;BME280;45588;51.598;5.618;2022-09-06T08:43:31;101359.25;;;23.69;92.50
59729;BME280;45588;51.598;5.618;2022-09-06T08:45:57;101364.16;;;23.86;89.90
59729;BME280;45588;51.598;5.618;2022-09-06T08:48:23;101362.03;;;24.02;89.73
59729;BME280;45588;51.598;5.618;2022-09-06T08:53:43;101360.50;;;24.28;89.52
59729;BME280;45588;51.598;5.618;2022-09-06T08:56:24;101360.41;;;24.31;85.02
59729;BME280;45588;51.598;5.618;2022-09-06T08:59:03;101357.88;;;24.26;85.73
59729;BME280;45588;51.598;5.618;2022-09-06T09:01:47;101351.47;;;24.33;87.59
59729;BME280;45588;51.598;5.618;2022-09-06T09:04:20;101351.34;;;24.38;85.65
59729;BME280;45588;51.598;5.618;2022-09-06T09:06:51;101355.72;;;24.40;85.94
59729;BME280;45588;51.598;5.618;2022-09-06T09:09:19;101360.22;;;24.38;83.59
59729;BME280;45588;51.598;5.618;2022-09-06T09:11:46;101367.16;;;24.44;82.09
59729;BME280;45588;51.598;5.618;2022-09-06T09:14:14;101360.69;;;24.54;84.79
59729;BME280;45588;51.598;5.618;2022-09-06T09:16:40;101366.81;;;24.59;83.42
59729;BME280;45588;51.598;5.618;2022-09-06T09:19:07;101352.78;;;24.53;80.95
59729;BME280;45588;51.598;5.618;2022-09-06T09:21:35;101350.53;;;24.70;82.88
59729;BME280;45588;51.598;5.618;2022-09-06T09:24:07;101353.66;;;24.84;82.35
59729;BME280;45588;51.598;5.618;2022-09-06T09:29:08;101348.34;;;25.16;81.34
59729;BME280;45588;51.598;5.618;2022-09-06T09:34:04;101354.44;;;25.21;78.92
59729;BME280;45588;51.598;5.618;2022-09-06T09:36:31;101346.06;;;25.02;78.22
59729;BME280;45588;51.598;5.618;2022-09-06T09:38:57;101343.13;;;25.11;78.29
59729;BME280;45588;51.598;5.618;2022-09-06T09:41:28;101337.06;;;25.06;78.19
59729;BME280;45588;51.598;5.618;2022-09-06T09:43:59;101337.75;;;25.42;81.34
59729;BME280;45588;51.598;5.618;2022-09-06T09:46:33;101341.41;;;25.40;80.86
59729;BME280;45588;51.598;5.618;2022-09-06T09:49:10;101346.22;;;25.57;80.63
59729;BME280;45588;51.598;5.618;2022-09-06T09:51:41;101357.91;;;25.53;77.70
59729;BME280;45588;51.598;5.618;2022-09-06T09:54:09;101359.88;;;25.76;78.66
59729;BME280;45588;51.598;5.618;2022-09-06T09:56:45;101359.22;;;25.67;79.15
59729;BME280;45588;51.598;5.618;2022-09-06T09:59:35;101356.13;;;25.53;78.66
59729;BME280;45588;51.598;5.618;2022-09-06T10:02:20;101353.81;;;25.71;78.91
59729;BME280;45588;51.598;5.618;2022-09-06T10:04:51;101349.00;;;25.54;76.17
59729;BME280;45588;51.598;5.618;2022-09-06T10:07:21;101353.38;;;25.83;79.87
59729;BME280;45588;51.598;5.618;2022-09-06T10:10:14;101349.94;;;25.79;76.49
59729;BME280;45588;51.598;5.618;2022-09-06T10:12:44;101348.84;;;25.58;77.45
59729;BME280;45588;51.598;5.618;2022-09-06T10:15:11;101341.16;;;25.47;75.01
59729;BME280;45588;51.598;5.618;2022-09-06T10:17:55;101340.00;;;25.84;78.40
59729;BME280;45588;51.598;5.618;2022-09-06T10:20:27;101337.47;;;26.08;79.60
59729;BME280;45588;51.598;5.618;2022-09-06T10:23:02;101334.53;;;26.16;78.50
59729;BME280;45588;51.598;5.618;2022-09-06T10:25:51;101339.06;;;26.14;78.73
59729;BME280;45588;51.598;5.618;2022-09-06T10:28:33;101350.56;;;26.16;77.16
59729;BME280;45588;51.598;5.618;2022-09-06T10:34:09;101364.72;;;26.44;76.45
59729;BME280;45588;51.598;5.618;2022-09-06T10:36:51;101367.13;;;26.53;75.80
59729;BME280;45588;51.598;5.618;2022-09-06T10:45:27;101347.75;;;26.45;73.22
59729;BME280;45588;51.598;5.618;2022-09-06T10:47:58;101347.31;;;26.59;74.76
59729;BME280;45588;51.598;5.618;2022-09-06T10:50:35;101347.78;;;26.70;76.53
59729;BME280;45588;51.598;5.618;2022-09-06T10:53:08;101344.81;;;26.78;71.97
59729;BME280;45588;51.598;5.618;2022-09-06T10:55:37;101332.69;;;26.69;72.76
59729;BME280;45588;51.598;5.618;2022-09-06T10:58:05;101334.50;;;26.69;74.16
59729;BME280;45588;51.598;5.618;2022-09-06T11:00:36;101338.78;;;26.73;72.56
59729;BME280;45588;51.598;5.618;2022-09-06T11:03:41;101334.69;;;26.88;73.37
59729;BME280;45588;51.598;5.618;2022-09-06T11:06:08;101344.38;;;26.90;72.34
59729;BME280;45588;51.598;5.618;2022-09-06T11:08:53;101343.09;;;27.01;73.69
59729;BME280;45588;51.598;5.618;2022-09-06T11:11:42;101349.25;;;27.28;74.31
59729;BME280;45588;51.598;5.618;2022-09-06T11:14:13;101335.72;;;26.84;71.56
59729;BME280;45588;51.598;5.618;2022-09-06T11:16:47;101343.81;;;27.06;72.12
59729;BME280;45588;51.598;5.618;2022-09-06T11:19:19;101340.22;;;27.07;73.71
59729;BME280;45588;51.598;5.618;2022-09-06T11:25:03;101352.13;;;26.98;69.97
59729;BME280;45588;51.598;5.618;2022-09-06T11:27:37;101358.31;;;27.24;72.50
59729;BME280;45588;51.598;5.618;2022-09-06T11:30:05;101359.28;;;26.97;73.30
59729;BME280;45588;51.598;5.618;2022-09-06T11:35:05;101366.59;;;26.92;70.64
59729;BME280;45588;51.598;5.618;2022-09-06T11:37:38;101381.53;;;26.98;71.21
59729;BME280;45588;51.598;5.618;2022-09-06T11:40:16;101383.22;;;27.01;71.39
59729;BME280;45588;51.598;5.618;2022-09-06T11:45:18;101371.66;;;27.00;68.85
59729;BME280;45588;51.598;5.618;2022-09-06T11:47:51;101379.56;;;27.03;73.92
59729;BME280;45588;51.598;5.618;2022-09-06T11:53:17;101377.88;;;26.75;65.72
59729;BME280;45588;51.598;5.618;2022-09-06T11:55:45;101378.44;;;26.60;69.50
59729;BME280;45588;51.598;5.618;2022-09-06T12:06:15;101348.28;;;26.82;68.77
59729;BME280;45588;51.598;5.618;2022-09-06T12:08:42;101351.03;;;26.79;64.39
59729;BME280;45588;51.598;5.618;2022-09-06T12:25:05;101346.81;;;26.73;63.53
59729;BME280;45588;51.598;5.618;2022-09-06T12:27:38;101346.88;;;26.71;64.34
59729;BME280;45588;51.598;5.618;2022-09-06T12:30:39;101339.72;;;26.72;65.78
59729;BME280;45588;51.598;5.618;2022-09-06T12:33:31;101340.97;;;26.87;66.33
59729;BME280;45588;51.598;5.618;2022-09-06T12:39:03;101322.41;;;26.59;63.32
59729;BME280;45588;51.598;5.618;2022-09-06T12:41:37;101325.50;;;26.71;63.95
59729;BME280;45588;51.598;5.618;2022-09-06T12:44:04;101325.13;;;26.81;60.53
59729;BME280;45588;51.598;5.618;2022-09-06T12:46:32;101322.88;;;26.70;59.90
59729;BME280;45588;51.598;5.618;2022-09-06T12:49:04;101323.81;;;26.69;60.31
59729;BME280;45588;51.598;5.618;2022-09-06T12:51:30;101326.06;;;26.80;62.00
59729;BME280;45588;51.598;5.618;2022-09-06T12:54:24;101326.91;;;26.82;62.25
59729;BME280;45588;51.598;5.618;2022-09-06T12:56:51;101325.31;;;26.76;61.33
59729;BME280;45588;51.598;5.618;2022-09-06T12:59:20;101325.88;;;26.61;61.29
59729;BME280;45588;51.598;5.618;2022-09-06T13:02:01;101322.88;;;26.70;63.78
59729;BME280;45588;51.598;5.618;2022-09-06T13:04:41;101317.41;;;26.73;63.09
59729;BME280;45588;51.598;5.618;2022-09-06T13:07:11;101309.34;;;26.74;63.33
59729;BME280;45588;51.598;5.618;2022-09-06T13:09:41;101305.44;;;26.83;61.42
59729;BME280;45588;51.598;5.618;2022-09-06T13:12:15;101296.38;;;26.87;60.14
59729;BME280;45588;51.598;5.618;2022-09-06T13:14:43;101301.44;;;26.95;60.26
59729;BME280;45588;51.598;5.618;2022-09-06T13:17:21;101296.09;;;26.95;59.56
59729;BME280;45588;51.598;5.618;2022-09-06T13:19:48;101295.34;;;26.91;60.33
59729;BME280;45588;51.598;5.618;2022-09-06T13:22:40;101298.78;;;26.95;58.76
59729;BME280;45588;51.598;5.618;2022-09-06T13:25:14;101291.16;;;26.84;60.28
59729;BME280;45588;51.598;5.618;2022-09-06T13:27:43;101291.16;;;26.84;62.02
59729;BME280;45588;51.598;5.618;2022-09-06T13:30:33;101297.53;;;26.80;60.77
59729;BME280;45588;51.598;5.618;2022-09-06T13:33:00;101297.97;;;26.69;59.10
59729;BME280;45588;51.598;5.618;2022-09-06T13:35:31;101290.34;;;26.59;60.97
59729;BME280;45588;51.598;5.618;2022-09-06T13:41:01;101284.47;;;26.72;59.97
59729;BME280;45588;51.598;5.618;2022-09-06T13:43:27;101281.91;;;26.69;59.29
59729;BME280;45588;51.598;5.618;2022-09-06T13:46:06;101276.03;;;26.83;61.44
59729;BME280;45588;51.598;5.618;2022-09-06T13:48:32;101278.97;;;26.77;56.48
59729;BME280;45588;51.598;5.618;2022-09-06T13:50:57;101264.53;;;26.81;57.51
59729;BME280;45588;51.598;5.618;2022-09-06T13:53:23;101266.09;;;26.63;59.08
59729;BME280;45588;51.598;5.618;2022-09-06T13:55:48;101266.94;;;26.89;62.00
59729;BME280;45588;51.598;5.618;2022-09-06T13:58:14;101256.25;;;26.89;60.08
59729;BME280;45588;51.598;5.618;2022-09-06T14:00:39;101256.03;;;26.93;58.51
59729;BME280;45588;51.598;5.618;2022-09-06T14:03:06;101259.31;;;26.78;57.58
59729;BME280;45588;51.598;5.618;2022-09-06T14:05:32;101248.78;;;26.73;59.28
59729;BME280;45588;51.598;5.618;2022-09-06T14:08:00;101236.81;;;26.84;60.78
59729;BME280;45588;51.598;5.618;2022-09-06T14:10:25;101245.81;;;26.81;57.80
59729;BME280;45588;51.598;5.618;2022-09-06T14:12:52;101239.38;;;26.63;58.65
59729;BME280;45588;51.598;5.618;2022-09-06T14:15:17;101243.66;;;26.69;60.54